createdAt,value
2018-10-05T00:00:11.831Z,194.13
2018-10-05T00:02:40.536Z,195.43
2018-10-05T00:05:09.364Z,204.15
2018-10-05T00:07:38.184Z,195.12
2018-10-05T00:10:07.056Z,195.77
2018-10-05T00:12:36.078Z,202.60
2018-10-05T00:15:04.816Z,192.55
2018-10-05T00:17:33.755Z,194.85
2018-10-05T00:20:02.498Z,189.55
2018-10-05T00:22:32.311Z,202.28
2018-10-05T00:25:01.171Z,197.45
2018-10-05T00:27:41.544Z,198.13
2018-10-05T00:30:10.395Z,193.20
2018-10-05T00:32:39.117Z,200.75
2018-10-05T00:35:08.141Z,202.62
2018-10-05T00:37:36.799Z,199.95
2018-10-05T00:40:05.575Z,198.32
2018-10-05T00:42:34.384Z,202.47
2018-10-05T00:45:03.322Z,194.93
2018-10-05T00:47:32.158Z,193.13
2018-10-05T00:50:01.023Z,190.97
2018-10-05T00:52:29.775Z,191.03
2018-10-05T00:54:58.923Z,191.07
2018-10-05T00:57:27.515Z,193.17
2018-10-05T00:59:56.381Z,194.17
2018-10-05T01:02:25.096Z,193.68
2018-10-05T01:04:54.042Z,191.28
2018-10-05T01:07:22.863Z,190.38
2018-10-05T01:09:51.999Z,197.68
2018-10-05T01:12:20.953Z,200.95
2018-10-05T01:14:49.815Z,192.80
2018-10-05T01:17:18.647Z,196.15
2018-10-05T01:19:47.747Z,193.28
2018-10-05T01:22:17.201Z,191.65
2018-10-05T01:24:46.164Z,188.47
2018-10-05T01:27:14.903Z,192.32
2018-10-05T01:29:43.718Z,189.35
2018-10-05T01:32:12.300Z,193.52
2018-10-05T01:34:41.130Z,191.70
2018-10-05T01:37:09.824Z,193.10
2018-10-05T01:39:38.793Z,189.90
2018-10-05T01:42:07.496Z,195.43
2018-10-05T01:44:36.358Z,192.80
2018-10-05T01:47:05.340Z,188.40
2018-10-05T01:49:34.107Z,192.28
2018-10-05T01:52:02.990Z,194.87
2018-10-05T01:54:32.131Z,194.87
2018-10-05T01:57:00.733Z,194.43
2018-10-05T01:59:29.653Z,190.20
2018-10-05T02:01:58.356Z,197.53
2018-10-05T02:04:27.583Z,208.13
2018-10-05T02:06:56.244Z,226.67
2018-10-05T02:09:25.058Z,208.13
2018-10-05T02:11:53.600Z,192.77
2018-10-05T02:14:22.827Z,191.03
2018-10-05T02:16:51.507Z,193.20
2018-10-05T02:19:20.515Z,193.32
2018-10-05T02:21:49.494Z,194.20
2018-10-05T02:24:18.206Z,187.25
2018-10-05T02:26:47.224Z,187.00
2018-10-05T02:29:15.970Z,188.07
2018-10-05T02:31:45.172Z,185.60
2018-10-05T02:34:15.851Z,188.57
2018-10-05T02:36:44.935Z,184.40
2018-10-05T02:39:13.997Z,184.40
2018-10-05T02:41:43.003Z,185.32
2018-10-05T02:44:11.924Z,188.93
2018-10-05T02:46:40.561Z,184.72
2018-10-05T02:49:09.369Z,183.75
2018-10-05T02:51:38.096Z,184.75
2018-10-05T02:54:07.428Z,187.77
2018-10-05T02:56:36.822Z,187.80
2018-10-05T02:59:05.835Z,185.82
2018-10-05T03:01:40.007Z,189.60
2018-10-05T03:04:08.810Z,187.20
2018-10-05T03:06:37.581Z,184.52
2018-10-05T03:09:07.018Z,185.05
2018-10-05T03:11:37.366Z,186.75
2018-10-05T03:14:05.945Z,191.28
2018-10-05T03:16:37.124Z,185.00
2018-10-05T03:19:05.919Z,185.57
2018-10-05T03:21:34.791Z,186.85
2018-10-05T03:24:03.651Z,188.57
2018-10-05T03:26:32.378Z,189.80
2018-10-05T03:29:01.092Z,189.15
2018-10-05T03:31:31.947Z,187.40
2018-10-05T03:34:00.856Z,189.55
2018-10-05T03:36:30.545Z,184.52
2018-10-05T03:38:59.243Z,187.00
2018-10-05T03:41:28.235Z,187.45
2018-10-05T03:43:56.779Z,185.48
2018-10-05T03:46:25.716Z,184.37
2018-10-05T03:48:54.547Z,185.07
2018-10-05T03:51:23.283Z,188.25
2018-10-05T03:53:52.090Z,209.83
2018-10-05T03:56:20.801Z,192.15
2018-10-05T03:58:49.771Z,196.57
2018-10-05T04:01:19.250Z,187.18
2018-10-05T04:03:48.086Z,182.90
2018-10-05T04:06:16.979Z,183.80
2018-10-05T04:08:45.598Z,186.37
2018-10-05T04:11:14.232Z,184.95
2018-10-05T04:13:42.888Z,191.50
2018-10-05T04:16:11.504Z,183.40
2018-10-05T04:18:40.212Z,184.43
2018-10-05T04:21:09.093Z,190.12
2018-10-05T04:23:37.984Z,181.90
2018-10-05T04:26:06.920Z,184.07
2018-10-05T04:28:35.817Z,185.97
2018-10-05T04:31:04.607Z,187.62
2018-10-05T04:33:33.960Z,183.12
2018-10-05T04:36:02.805Z,188.75
2018-10-05T04:38:31.525Z,184.28
2018-10-05T04:41:00.188Z,190.45
2018-10-05T04:43:28.864Z,186.67
2018-10-05T04:45:57.538Z,186.07
2018-10-05T04:48:26.236Z,185.55
2018-10-05T04:50:55.140Z,188.82
2018-10-05T04:53:24.317Z,183.68
2018-10-05T04:55:53.286Z,188.10
2018-10-05T04:58:22.064Z,187.43
2018-10-05T05:00:50.940Z,188.50
2018-10-05T05:03:19.790Z,187.55
2018-10-05T05:05:50.287Z,191.05
2018-10-05T05:08:18.983Z,184.85
2018-10-05T05:10:47.766Z,184.90
2018-10-05T05:13:16.754Z,188.87
2018-10-05T05:15:45.350Z,192.03
2018-10-05T05:18:14.083Z,188.07
2018-10-05T05:20:42.836Z,189.13
2018-10-05T05:23:13.383Z,188.12
2018-10-05T05:25:42.337Z,187.32
2018-10-05T05:28:11.349Z,188.87
2018-10-05T05:30:40.419Z,187.55
2018-10-05T05:33:09.331Z,190.77
2018-10-05T05:35:40.927Z,189.32
2018-10-05T05:38:10.902Z,182.53
2018-10-05T05:40:40.321Z,191.18
2018-10-05T05:43:09.209Z,188.20
2018-10-05T05:45:39.298Z,185.48
2018-10-05T05:48:08.102Z,189.87
2018-10-05T05:50:36.884Z,189.52
2018-10-05T05:53:16.141Z,189.72
2018-10-05T05:55:52.147Z,192.22
2018-10-05T05:58:21.089Z,188.35
2018-10-05T06:00:49.679Z,185.18
2018-10-05T06:03:18.254Z,194.07
2018-10-05T06:05:47.291Z,196.87
2018-10-05T06:08:16.725Z,192.47
2018-10-05T06:10:47.049Z,191.57
2018-10-05T06:13:15.881Z,197.55
2018-10-05T06:15:47.345Z,194.28
2018-10-05T06:18:16.189Z,190.88
2018-10-05T06:20:44.752Z,192.05
2018-10-05T06:23:14.066Z,191.80
2018-10-05T06:25:43.208Z,189.07
2018-10-05T06:28:12.042Z,191.65
2018-10-05T06:30:42.198Z,190.35
2018-10-05T06:33:11.193Z,192.35
2018-10-05T06:35:40.280Z,198.62
2018-10-05T06:38:09.110Z,188.18
2018-10-05T06:40:37.868Z,188.22
2018-10-05T06:43:07.686Z,187.15
2018-10-05T06:45:36.600Z,195.10
2018-10-05T06:48:05.726Z,191.65
2018-10-05T06:50:35.279Z,193.95
2018-10-05T06:53:03.869Z,190.70
2018-10-05T06:55:33.052Z,190.90
2018-10-05T06:58:02.018Z,192.87
2018-10-05T07:00:32.720Z,204.00
2018-10-05T07:03:01.655Z,192.18
2018-10-05T07:05:30.678Z,201.58
2018-10-05T07:08:01.752Z,198.90
2018-10-05T07:10:30.866Z,195.65
2018-10-05T07:13:00.404Z,198.32
2018-10-05T07:15:29.959Z,203.55
2018-10-05T07:17:59.935Z,211.95
2018-10-05T07:20:29.244Z,214.05
2018-10-05T07:22:58.460Z,201.88
2018-10-05T07:25:27.492Z,204.63
2018-10-05T07:27:57.375Z,204.10
2018-10-05T07:30:26.268Z,203.45
2018-10-05T07:32:55.348Z,202.78
2018-10-05T07:35:23.939Z,198.80
2018-10-05T07:37:53.361Z,220.85
2018-10-05T07:40:22.250Z,206.93
2018-10-05T07:42:51.545Z,204.78
2018-10-05T07:45:20.356Z,212.68
2018-10-05T07:47:50.491Z,205.37
2018-10-05T07:50:22.396Z,212.27
2018-10-05T07:52:51.923Z,207.25
2018-10-05T07:55:21.795Z,216.00
2018-10-05T07:57:54.587Z,218.37
2018-10-05T08:00:24.977Z,213.80
2018-10-05T08:02:54.513Z,218.90
2018-10-05T08:05:30.035Z,209.07
2018-10-05T08:08:00.499Z,224.75
2018-10-05T08:10:31.062Z,218.15
2018-10-05T08:13:00.871Z,226.18
2018-10-05T08:15:31.330Z,227.07
2018-10-05T08:18:00.186Z,224.60
2018-10-05T08:20:28.849Z,223.32
2018-10-05T08:22:58.112Z,239.27
2018-10-05T08:25:27.537Z,236.77
2018-10-05T08:27:58.489Z,214.25
2018-10-05T08:30:31.968Z,218.37
2018-10-05T08:33:02.465Z,219.90
2018-10-05T08:35:33.052Z,219.68
2018-10-05T08:38:03.782Z,234.70
2018-10-05T08:40:35.989Z,223.32
2018-10-05T08:43:07.555Z,233.17
2018-10-05T08:45:38.342Z,245.20
2018-10-05T08:48:08.657Z,242.65
2018-10-05T08:50:45.449Z,272.90
2018-10-05T08:53:15.969Z,261.18
2018-10-05T08:55:47.325Z,274.15
2018-10-05T08:58:17.113Z,252.32
2018-10-05T09:00:47.518Z,278.67
2018-10-05T09:03:16.554Z,251.92
2018-10-05T09:05:45.472Z,270.70
2018-10-05T09:08:16.755Z,275.20
2018-10-05T09:10:46.079Z,279.02
2018-10-05T09:13:16.254Z,279.13
2018-10-05T09:15:48.779Z,281.90
2018-10-05T09:18:23.019Z,267.23
2018-10-05T09:20:55.299Z,270.90
2018-10-05T09:23:27.222Z,280.10
2018-10-05T09:25:59.947Z,280.25
2018-10-05T09:28:31.756Z,270.55
2018-10-05T09:31:04.270Z,270.40
2018-10-05T09:33:36.114Z,289.42
2018-10-05T09:36:09.659Z,269.60
2018-10-05T09:38:42.154Z,306.87
2018-10-05T09:41:22.513Z,278.20
2018-10-05T09:43:55.366Z,297.25
2018-10-05T09:46:30.616Z,276.70
2018-10-05T09:49:11.340Z,293.12
2018-10-05T09:51:42.802Z,351.00
2018-10-05T09:56:56.342Z,483.87
2018-10-05T09:59:30.494Z,509.05
2018-10-05T10:02:05.685Z,571.35
2018-10-05T10:04:35.082Z,637.77
2018-10-05T10:07:05.438Z,640.50
2018-10-05T10:09:35.167Z,743.97
2018-10-05T10:12:06.614Z,776.87
2018-10-05T10:14:35.684Z,810.55
2018-10-05T10:17:08.352Z,862.92
2018-10-05T10:19:38.108Z,934.28
2018-10-05T10:24:58.378Z,999.90
2018-10-05T10:27:29.454Z,999.90
2018-10-05T10:30:04.264Z,999.90
2018-10-05T10:32:35.947Z,999.90
2018-10-05T10:35:05.508Z,982.45
2018-10-05T10:37:36.445Z,946.83
2018-10-05T10:40:06.869Z,872.70
2018-10-05T10:42:37.259Z,798.85
2018-10-05T10:45:07.321Z,827.73
2018-10-05T10:47:37.192Z,853.82
2018-10-05T10:50:06.088Z,865.95
2018-10-05T10:52:34.748Z,843.65
2018-10-05T10:55:05.156Z,823.25
2018-10-05T10:57:47.090Z,880.78
2018-10-05T11:03:11.792Z,845.20
2018-10-05T11:05:49.707Z,855.50
2018-10-05T11:08:18.500Z,943.58
2018-10-05T11:10:47.405Z,900.13
2018-10-05T11:13:16.549Z,989.12
2018-10-05T11:15:45.770Z,903.10
2018-10-05T11:18:14.812Z,892.28
2018-10-05T11:20:44.023Z,835.20
2018-10-05T11:23:15.182Z,732.15
2018-10-05T11:25:44.789Z,724.65
2018-10-05T11:28:13.566Z,713.08
2018-10-05T11:30:42.221Z,706.55
2018-10-05T11:33:11.127Z,640.28
2018-10-05T11:35:40.458Z,644.13
2018-10-05T11:38:09.457Z,665.60
2018-10-05T11:40:38.701Z,595.15
2018-10-05T11:43:08.213Z,479.90
2018-10-05T11:45:36.946Z,499.42
2018-10-05T11:48:05.948Z,445.65
2018-10-05T11:50:34.797Z,410.35
2018-10-05T11:53:15.622Z,435.87
2018-10-05T11:55:45.086Z,431.37
2018-10-05T11:58:16.226Z,461.88
2018-10-05T12:00:47.110Z,455.57
2018-10-05T12:03:17.569Z,454.72
2018-10-05T12:05:47.741Z,454.68
2018-10-05T12:08:17.183Z,483.25
2018-10-05T12:10:47.484Z,730.08
2018-10-05T12:13:22.199Z,782.23
2018-10-05T12:15:54.213Z,999.90
2018-10-05T12:18:24.434Z,601.08
2018-10-05T12:20:54.124Z,509.45
2018-10-05T12:23:24.077Z,476.05
2018-10-05T12:25:57.222Z,462.60
2018-10-05T12:28:27.402Z,444.52
2018-10-05T12:30:56.696Z,470.30
2018-10-05T12:33:26.353Z,449.00
2018-10-05T12:35:55.854Z,425.62
2018-10-05T12:38:27.506Z,483.10
2018-10-05T12:40:58.197Z,490.45
2018-10-05T12:43:29.985Z,523.40
2018-10-05T12:46:01.196Z,999.90
2018-10-05T12:48:32.559Z,516.25
2018-10-05T12:51:13.165Z,438.30
2018-10-05T12:53:46.151Z,393.42
2018-10-05T12:56:19.110Z,386.98
2018-10-05T12:58:48.391Z,405.95
2018-10-05T13:01:17.679Z,369.80
2018-10-05T13:03:46.718Z,429.35
2018-10-05T13:06:17.469Z,424.68
2018-10-05T13:08:46.616Z,409.80
2018-10-05T13:11:16.535Z,436.30
2018-10-05T13:13:47.292Z,476.18
2018-10-05T13:16:19.524Z,471.25
2018-10-05T13:18:48.683Z,452.45
2018-10-05T13:21:20.705Z,506.93
2018-10-05T13:23:51.748Z,677.70
2018-10-05T13:26:23.850Z,664.65
2018-10-05T13:28:56.305Z,729.72
2018-10-05T13:31:25.772Z,789.08
2018-10-05T13:33:57.037Z,780.22
2018-10-05T13:36:27.306Z,790.80
2018-10-05T13:38:59.697Z,831.90
2018-10-05T13:41:29.858Z,889.17
2018-10-05T13:43:59.340Z,938.10
2018-10-05T13:46:32.413Z,965.27
2018-10-05T13:49:02.307Z,915.83
2018-10-05T13:51:32.919Z,999.90
2018-10-05T13:54:03.719Z,929.60
2018-10-05T13:56:34.536Z,999.90
2018-10-05T13:59:06.123Z,999.90
2018-10-05T14:01:36.091Z,946.55
2018-10-05T14:04:07.202Z,868.25
2018-10-05T14:06:38.266Z,802.75
2018-10-05T14:09:12.555Z,734.30
2018-10-05T14:11:44.674Z,727.00
2018-10-05T14:14:15.251Z,690.67
2018-10-05T14:16:46.900Z,678.00
2018-10-05T14:19:18.603Z,678.62
2018-10-05T14:21:50.781Z,676.17
2018-10-05T14:24:21.312Z,849.20
2018-10-05T14:26:56.116Z,999.90
2018-10-05T14:29:26.218Z,644.95
2018-10-05T14:31:57.599Z,695.50
2018-10-05T14:34:27.461Z,999.90
2018-10-05T14:36:57.701Z,769.97
2018-10-05T14:39:28.162Z,999.90
2018-10-05T14:41:58.889Z,572.30
2018-10-05T14:44:28.968Z,613.58
2018-10-05T14:47:01.231Z,617.55
2018-10-05T14:49:32.792Z,587.52
2018-10-05T14:52:03.574Z,662.72
2018-10-05T14:54:33.690Z,634.85
2018-10-05T14:57:03.596Z,604.55
2018-10-05T14:59:34.334Z,651.20
2018-10-05T15:02:10.033Z,678.98
2018-10-05T15:04:44.261Z,607.55
2018-10-05T15:07:16.122Z,690.02
2018-10-05T15:09:46.783Z,612.20
2018-10-05T15:12:16.156Z,581.17
2018-10-05T15:14:45.518Z,636.30
2018-10-05T15:17:15.958Z,612.50
2018-10-05T15:19:45.157Z,607.55
2018-10-05T15:22:14.751Z,622.98
2018-10-05T15:24:44.325Z,569.83
2018-10-05T15:27:14.968Z,521.40
2018-10-05T15:29:47.961Z,500.05
2018-10-05T15:32:18.055Z,513.63
2018-10-05T15:34:48.301Z,539.02
2018-10-05T15:37:17.239Z,562.00
2018-10-05T15:39:47.719Z,478.42
2018-10-05T15:42:16.792Z,462.98
2018-10-05T15:44:47.085Z,454.32
2018-10-05T15:47:17.646Z,457.20
2018-10-05T15:49:49.131Z,465.28
2018-10-05T15:52:19.647Z,442.00
2018-10-05T15:54:50.860Z,467.18
2018-10-05T15:57:20.599Z,428.08
2018-10-05T15:59:50.975Z,386.30
2018-10-05T16:02:22.046Z,410.67
2018-10-05T16:04:52.791Z,443.10
2018-10-05T16:07:22.405Z,431.27
2018-10-05T16:09:52.852Z,419.20
2018-10-05T16:12:22.805Z,564.32
2018-10-05T16:14:53.617Z,677.73
2018-10-05T16:17:24.768Z,696.42
2018-10-05T16:19:55.017Z,484.98
2018-10-05T16:22:25.076Z,605.08
2018-10-05T16:24:57.502Z,392.60
2018-10-05T16:27:28.276Z,403.60
2018-10-05T16:29:57.681Z,422.63
2018-10-05T16:32:27.352Z,429.35
2018-10-05T16:34:57.985Z,511.05
2018-10-05T16:37:29.502Z,478.35
2018-10-05T16:40:01.250Z,548.52
2018-10-05T16:42:34.929Z,496.50
2018-10-05T16:45:05.075Z,562.65
2018-10-05T16:47:34.802Z,350.02
2018-10-05T16:50:05.594Z,397.77
2018-10-05T16:52:34.566Z,527.97
2018-10-05T16:55:04.848Z,356.45
2018-10-05T16:57:33.947Z,359.60
2018-10-05T17:00:03.524Z,375.30
2018-10-05T17:02:33.002Z,371.80
2018-10-05T17:05:03.893Z,368.88
2018-10-05T17:07:33.487Z,322.12
2018-10-05T17:10:03.023Z,315.60
2018-10-05T17:12:37.019Z,315.90
2018-10-05T17:15:07.047Z,333.45
2018-10-05T17:17:37.925Z,298.55
2018-10-05T17:20:08.246Z,304.45
2018-10-05T17:22:37.555Z,298.38
2018-10-05T17:25:07.568Z,264.68
2018-10-05T17:27:36.843Z,280.00
2018-10-05T17:30:07.710Z,275.35
2018-10-05T17:32:38.190Z,257.77
2018-10-05T17:35:08.462Z,288.78
2018-10-05T17:37:37.964Z,300.40
2018-10-05T17:40:09.155Z,288.62
2018-10-05T17:42:40.823Z,268.00
2018-10-05T17:45:11.834Z,287.65
2018-10-05T17:47:41.676Z,271.00
2018-10-05T17:50:10.977Z,266.82
2018-10-05T17:52:40.536Z,293.33
2018-10-05T17:55:09.739Z,303.77
2018-10-05T17:57:39.908Z,319.13
2018-10-05T18:00:09.388Z,479.90
2018-10-05T18:02:38.922Z,337.45
2018-10-05T18:05:08.130Z,349.35
2018-10-05T18:07:37.989Z,299.92
2018-10-05T18:10:06.849Z,377.95
2018-10-05T18:12:36.803Z,264.60
2018-10-05T18:15:06.650Z,285.40
2018-10-05T18:17:35.742Z,299.32
2018-10-05T18:20:08.077Z,428.05
2018-10-05T18:22:38.333Z,339.60
2018-10-05T18:25:08.612Z,327.45
2018-10-05T18:27:39.475Z,295.10
2018-10-05T18:30:10.673Z,361.35
2018-10-05T18:32:42.367Z,274.30
2018-10-05T18:35:13.031Z,275.25
2018-10-05T18:37:49.225Z,264.23
2018-10-05T18:40:19.948Z,250.47
2018-10-05T18:42:50.258Z,255.60
2018-10-05T18:45:26.513Z,252.18
2018-10-05T18:47:57.061Z,310.95
2018-10-05T18:50:29.315Z,396.93
2018-10-05T18:53:01.201Z,243.50
2018-10-05T18:55:32.039Z,300.38
2018-10-05T18:58:04.157Z,229.63
2018-10-05T19:00:36.336Z,229.82
2018-10-05T19:03:08.783Z,234.25
2018-10-05T19:05:40.305Z,287.68
2018-10-05T19:08:11.513Z,230.40
2018-10-05T19:10:42.086Z,238.55
2018-10-05T19:13:12.180Z,290.62
2018-10-05T19:15:44.033Z,232.03
2018-10-05T19:18:13.436Z,236.03
2018-10-05T19:20:44.972Z,222.30
2018-10-05T19:23:15.139Z,222.07
2018-10-05T19:25:44.095Z,225.47
2018-10-05T19:28:13.702Z,231.00
2018-10-05T19:30:43.205Z,226.70
2018-10-05T19:33:12.319Z,215.40
2018-10-05T19:35:41.740Z,227.38
2018-10-05T19:38:11.727Z,241.65
2018-10-05T19:40:44.869Z,233.20
2018-10-05T19:43:15.194Z,245.30
2018-10-05T19:45:44.731Z,241.78
2018-10-05T19:48:20.359Z,245.40
2018-10-05T19:50:52.189Z,216.35
2018-10-05T19:53:23.598Z,326.18
2018-10-05T19:55:52.884Z,236.12
2018-10-05T19:58:23.186Z,226.80
2018-10-05T20:00:52.758Z,219.68
2018-10-05T20:03:23.045Z,226.67
2018-10-05T20:05:53.640Z,216.70
2018-10-05T20:08:23.871Z,222.50
2018-10-05T20:10:53.430Z,210.35
2018-10-05T20:13:22.657Z,207.43
2018-10-05T20:15:53.333Z,204.00
2018-10-05T20:18:24.389Z,207.62
2018-10-05T20:20:55.000Z,210.15
2018-10-05T20:23:24.700Z,219.72
2018-10-05T20:25:54.659Z,219.37
2018-10-05T20:28:24.474Z,205.67
2018-10-05T20:30:53.695Z,209.10
2018-10-05T20:33:24.580Z,211.57
2018-10-05T20:35:55.427Z,218.70
2018-10-05T20:38:24.888Z,224.12
2018-10-05T20:40:54.716Z,212.78
2018-10-05T20:43:23.601Z,210.65
2018-10-05T20:45:52.572Z,213.00
2018-10-05T20:48:22.035Z,208.30
2018-10-05T20:50:52.039Z,214.78
2018-10-05T20:53:23.528Z,221.20
2018-10-05T20:55:53.880Z,208.05
2018-10-05T20:58:23.794Z,217.70
2018-10-05T21:00:52.915Z,208.97
2018-10-05T21:03:23.198Z,208.80
2018-10-05T21:05:52.726Z,209.90
2018-10-05T21:08:21.843Z,203.25
2018-10-05T21:10:52.525Z,211.68
2018-10-05T21:13:21.614Z,209.10
2018-10-05T21:15:50.797Z,203.05
2018-10-05T21:18:20.648Z,212.10
2018-10-05T21:20:51.450Z,209.62
2018-10-05T21:23:21.075Z,214.25
2018-10-05T21:25:50.981Z,208.60
2018-10-05T21:28:19.887Z,209.67
2018-10-05T21:30:49.887Z,208.68
2018-10-05T21:33:18.952Z,205.12
2018-10-05T21:35:49.154Z,199.90
2018-10-05T21:38:19.366Z,256.73
2018-10-05T21:40:48.225Z,208.90
2018-10-05T21:43:17.863Z,204.10
2018-10-05T21:45:48.616Z,213.77
2018-10-05T21:48:19.315Z,226.18
2018-10-05T21:50:50.553Z,223.75
2018-10-05T21:53:19.993Z,222.55
2018-10-05T21:55:49.830Z,214.23
2018-10-05T21:58:20.614Z,221.13
2018-10-05T22:00:49.314Z,215.82
2018-10-05T22:03:19.475Z,210.60
2018-10-05T22:05:49.813Z,207.52
2018-10-05T22:08:18.816Z,209.03
2018-10-05T22:10:48.468Z,223.47
2018-10-05T22:13:17.565Z,220.02
2018-10-05T22:15:46.875Z,217.47
2018-10-05T22:18:15.885Z,204.43
2018-10-05T22:20:44.805Z,252.32
2018-10-05T22:23:15.052Z,208.95
2018-10-05T22:25:44.831Z,205.12
2018-10-05T22:28:13.887Z,207.27
2018-10-05T22:30:42.549Z,210.38
2018-10-05T22:33:11.894Z,208.38
2018-10-05T22:35:40.704Z,209.80
2018-10-05T22:38:10.143Z,204.68
2018-10-05T22:40:38.876Z,208.30
2018-10-05T22:43:08.004Z,209.37
2018-10-05T22:45:37.817Z,216.10
2018-10-05T22:48:06.944Z,199.80
2018-10-05T22:50:36.699Z,205.22
2018-10-05T22:53:05.582Z,205.57
2018-10-05T22:55:34.708Z,202.85
2018-10-05T22:58:04.245Z,209.67
2018-10-05T23:00:33.948Z,212.25
2018-10-05T23:03:03.141Z,207.67
2018-10-05T23:05:32.733Z,200.70
2018-10-05T23:08:01.736Z,202.72
2018-10-05T23:10:30.687Z,204.18
2018-10-05T23:12:59.734Z,215.68
2018-10-05T23:15:28.724Z,204.55
2018-10-05T23:17:57.604Z,203.75
2018-10-05T23:20:26.509Z,204.90
2018-10-05T23:22:56.089Z,219.20
2018-10-05T23:25:24.926Z,206.68
2018-10-05T23:27:54.131Z,238.12
2018-10-05T23:30:23.025Z,209.20
2018-10-05T23:32:51.956Z,204.72
2018-10-05T23:35:20.640Z,201.77
2018-10-05T23:37:49.505Z,202.82
2018-10-05T23:40:18.216Z,199.25
2018-10-05T23:42:47.619Z,200.60
2018-10-05T23:45:16.827Z,208.60
2018-10-05T23:47:45.564Z,208.90
2018-10-05T23:50:14.408Z,201.82
2018-10-05T23:52:46.779Z,206.65
2018-10-05T23:55:16.543Z,205.05
2018-10-05T23:57:45.484Z,209.83
